Time;durP1;ratioP1;P1;durP2;ratioP2;P2;SDS_P1;SDS_P2;PMS_P1;PMS_P2;Temp;Humidity;BMP_temperature;BMP_pressure;BME280_temperature;BME280_humidity;BME280_pressure;Samples;Min_cycle;Max_cycle;Signal;HPM_P1;HPM_P2
2023/08/19 00:01:15;;;;;;;;;;;20.70;99.90;;;;;;5049184;28;20490;-52
2023/08/19 00:03:41;;;;;;;13.43;12.32;;;20.70;99.90;;;;;;5048766;28;19959;-49
2023/08/19 00:06:09;;;;;;;;;;;20.70;99.90;;;;;;5048558;28;20036;-51
2023/08/19 00:08:35;;;;;;;15.85;14.35;;;20.70;99.90;;;;;;5045379;28;20004;-49
2023/08/19 00:11:02;;;;;;;20.05;16.95;;;20.70;99.90;;;;;;5043050;28;20111;-53
2023/08/19 00:13:28;;;;;;;16.27;14.68;;;20.70;99.90;;;;;;5047536;28;20041;-50
2023/08/19 00:15:53;;;;;;;15.13;13.80;;;20.70;99.90;;;;;;5048030;28;20048;-53
2023/08/19 00:18:19;;;;;;;;;;;20.70;99.90;;;;;;5047560;28;20041;-51
2023/08/19 00:20:45;;;;;;;11.27;10.48;;;20.70;99.90;;;;;;5048031;28;19963;-50
2023/08/19 00:23:10;;;;;;;;;;;20.70;99.90;;;;;;5048670;28;20044;-50
2023/08/19 00:25:36;;;;;;;10.73;9.80;;;20.70;99.90;;;;;;5047900;28;20012;-53
2023/08/19 00:28:04;;;;;;;;;;;20.60;99.90;;;;;;5047483;28;20130;-55
2023/08/19 00:30:30;;;;;;;16.65;15.15;;;20.60;99.90;;;;;;5048017;28;19996;-49
2023/08/19 00:32:55;;;;;;;18.98;17.08;;;20.60;99.90;;;;;;5049257;28;20074;-49
2023/08/19 00:35:21;;;;;;;;;;;20.60;99.90;;;;;;5048489;28;20060;-50
2023/08/19 00:37:47;;;;;;;27.60;23.60;;;20.60;99.90;;;;;;5048283;28;19962;-49
2023/08/19 00:40:16;;;;;;;;;;;20.60;99.90;;;;;;5047886;28;20040;-49
2023/08/19 00:42:43;;;;;;;25.58;22.90;;;20.60;99.90;;;;;;5047587;28;19921;-54
2023/08/19 00:45:09;;;;;;;25.30;22.58;;;20.60;99.90;;;;;;5045341;28;20028;-53
2023/08/19 00:47:36;;;;;;;26.10;23.30;;;20.70;99.90;;;;;;5048074;28;20543;-50
2023/08/19 00:50:04;;;;;;;27.08;24.40;;;20.70;99.90;;;;;;5047199;28;20522;-49
2023/08/19 00:52:30;;;;;;;26.05;22.40;;;20.70;99.90;;;;;;5047653;28;20041;-52
2023/08/19 00:54:56;;;;;;;;;;;20.70;99.90;;;;;;5047692;28;20486;-50
2023/08/19 00:57:22;;;;;;;23.60;21.13;;;20.70;99.90;;;;;;5048261;28;19963;-50
2023/08/19 00:59:48;;;;;;;26.73;24.20;;;20.70;99.90;;;;;;5046931;28;20490;-50
2023/08/19 01:02:13;;;;;;;;;;;20.60;99.90;;;;;;5048596;28;20094;-51
2023/08/19 01:04:39;;;;;;;24.55;22.17;;;20.60;99.90;;;;;;5048193;28;20301;-50
2023/08/19 01:07:08;;;;;;;;;;;20.60;99.90;;;;;;5047896;28;20082;-50
2023/08/19 01:10:03;;;;;;;29.92;23.13;;;20.60;99.90;;;;;;5044847;28;19920;-56
2023/08/19 01:12:35;;;;;;;26.00;23.30;;;20.60;99.90;;;;;;4989398;28;20080;-50
2023/08/19 01:15:17;;;;;;;24.67;21.65;;;20.60;99.90;;;;;;4989117;28;20057;-51
2023/08/19 01:17:45;;;;;;;27.65;24.70;;;20.60;99.90;;;;;;4972383;28;20649;-51
2023/08/19 01:20:11;;;;;;;28.63;23.27;;;20.70;99.90;;;;;;4989091;28;20153;-53
2023/08/19 01:22:46;;;;;;;28.15;25.08;;;20.70;99.90;;;;;;4989612;28;20152;-51
2023/08/19 01:25:12;;;;;;;27.80;24.33;;;20.70;99.90;;;;;;4989379;28;20419;-49
2023/08/19 01:27:38;;;;;;;;;;;20.70;99.90;;;;;;4989160;28;20049;-50
2023/08/19 01:30:04;;;;;;;25.35;22.65;;;20.70;99.90;;;;;;4988470;28;19953;-50
2023/08/19 01:32:29;;;;;;;;;;;20.70;99.90;;;;;;4989739;28;20462;-50
2023/08/19 01:34:55;;;;;;;26.20;23.42;;;20.70;99.90;;;;;;4989157;28;20004;-54
2023/08/19 01:37:43;;;;;;;;;;;20.70;99.90;;;;;;4989937;28;20045;-52
2023/08/19 01:40:13;;;;;;;24.05;21.67;;;20.70;99.90;;;;;;4972174;28;20025;-50
2023/08/19 01:42:40;;;;;;;23.17;20.83;;;20.60;99.90;;;;;;4988991;28;20042;-54
2023/08/19 01:45:08;;;;;;;23.52;21.33;;;20.60;99.90;;;;;;4987922;28;20042;-50
2023/08/19 01:47:38;;;;;;;24.42;20.20;;;20.50;99.90;;;;;;4988907;28;20042;-49
2023/08/19 01:50:07;;;;;;;24.08;20.55;;;20.40;99.90;;;;;;5049507;28;20044;-50
2023/08/19 01:52:33;;;;;;;25.05;22.45;;;20.40;99.90;;;;;;5050947;28;20036;-56
2023/08/19 01:54:59;;;;;;;;;;;20.40;99.90;;;;;;5051065;28;20044;-52
2023/08/19 01:57:26;;;;;;;27.00;24.05;;;20.30;99.90;;;;;;5050708;28;19916;-51
2023/08/19 01:59:52;;;;;;;25.27;22.20;;;20.30;99.90;;;;;;5031947;28;20045;-51
2023/08/19 02:02:18;;;;;;;25.52;22.98;;;20.30;99.90;;;;;;5050660;28;20044;-49
2023/08/19 02:04:43;;;;;;;;;;;20.40;99.90;;;;;;5051266;28;20041;-50
2023/08/19 02:07:09;;;;;;;28.20;22.10;;;20.40;99.90;;;;;;5050461;28;19971;-50
2023/08/19 02:09:34;;;;;;;;;;;20.30;99.90;;;;;;5050266;28;20163;-49
2023/08/19 02:12:00;;;;;;;25.10;22.58;;;20.40;99.90;;;;;;5044796;28;19917;-50
2023/08/19 02:14:25;;;;;;;;;;;20.40;99.90;;;;;;5051135;28;20116;-51
2023/08/19 02:16:51;;;;;;;24.02;21.52;;;20.40;99.90;;;;;;5049514;28;20312;-53
2023/08/19 02:19:16;;;;;;;;;;;20.30;99.90;;;;;;5049992;28;20044;-50
2023/08/19 02:21:42;;;;;;;25.10;22.50;;;20.40;99.90;;;;;;5050123;28;20015;-50
2023/08/19 02:24:08;;;;;;;;;;;20.40;99.90;;;;;;5051094;28;20029;-53
2023/08/19 02:26:33;;;;;;;29.67;23.23;;;20.30;99.90;;;;;;5049964;28;19920;-49
2023/08/19 02:28:59;;;;;;;;;;;20.30;99.90;;;;;;5049534;28;20520;-49
2023/08/19 02:31:26;;;;;;;27.52;22.38;;;20.30;99.90;;;;;;5050380;28;19928;-55
2023/08/19 02:33:52;;;;;;;26.70;22.15;;;20.30;99.90;;;;;;5049873;28;20375;-53
2023/08/19 02:36:17;;;;;;;25.38;22.58;;;20.20;99.90;;;;;;5049929;28;20052;-49
2023/08/19 02:38:43;;;;;;;;;;;20.20;99.90;;;;;;5049698;28;20466;-49
2023/08/19 02:41:08;;;;;;;25.25;22.70;;;20.20;99.90;;;;;;5050123;28;19924;-52
2023/08/19 02:43:34;;;;;;;;;;;20.10;99.90;;;;;;5050194;28;20498;-50
2023/08/19 02:46:01;;;;;;;25.60;21.67;;;20.10;99.90;;;;;;5049780;28;19916;-50
2023/08/19 02:48:26;;;;;;;27.88;23.05;;;20.10;99.90;;;;;;5048636;28;20049;-51
2023/08/19 02:50:54;;;;;;;25.25;22.58;;;20.10;99.90;;;;;;5050091;28;20032;-51
2023/08/19 02:53:19;;;;;;;23.23;20.80;;;20.10;99.90;;;;;;5032000;28;20394;-52
2023/08/19 02:55:45;;;;;;;26.35;21.08;;;20.10;99.90;;;;;;5048491;28;20037;-53
2023/08/19 02:58:13;;;;;;;;;;;20.00;99.90;;;;;;5048078;28;20398;-50
2023/08/19 03:00:39;;;;;;;23.73;21.23;;;20.00;99.90;;;;;;5049363;28;19967;-52
2023/08/19 03:03:05;;;;;;;;;;;20.00;99.90;;;;;;5049816;28;20120;-50
2023/08/19 03:05:37;;;;;;;27.45;22.00;;;20.00;99.90;;;;;;5049411;28;20007;-49
2023/08/19 03:08:04;;;;;;;22.52;19.70;;;20.00;99.90;;;;;;5048698;28;20037;-50
2023/08/19 03:10:39;;;;;;;23.38;20.98;;;20.00;99.90;;;;;;5046715;28;20083;-52
2023/08/19 03:13:05;;;;;;;26.42;21.60;;;19.90;99.90;;;;;;5044284;28;20044;-53
2023/08/19 03:15:32;;;;;;;22.65;20.25;;;20.00;99.90;;;;;;5048999;28;20041;-52
2023/08/19 03:17:58;;;;;;;25.55;20.48;;;20.00;99.90;;;;;;5048933;28;20059;-49
2023/08/19 03:20:24;;;;;;;23.38;20.05;;;20.00;99.90;;;;;;5048381;28;20483;-52
2023/08/19 03:22:50;;;;;;;22.80;20.48;;;19.90;99.90;;;;;;5048481;28;20036;-49
2023/08/19 03:25:19;;;;;;;21.20;19.00;;;19.90;99.90;;;;;;5049124;28;20449;-49
2023/08/19 03:27:44;;;;;;;24.73;20.13;;;20.00;99.90;;;;;;5049248;28;20206;-49
2023/08/19 03:30:10;;;;;;;23.08;20.85;;;19.90;99.90;;;;;;5048127;28;20116;-54
2023/08/19 03:32:35;;;;;;;;;;;20.00;99.90;;;;;;5048864;28;20764;-50
2023/08/19 03:35:02;;;;;;;26.17;20.60;;;20.00;99.90;;;;;;5047650;28;19916;-53
2023/08/19 03:37:27;;;;;;;;;;;20.00;99.90;;;;;;5049092;28;20036;-53
2023/08/19 03:39:53;;;;;;;25.52;19.58;;;19.90;99.90;;;;;;5048448;28;20295;-49
2023/08/19 03:42:18;;;;;;;;;;;19.90;99.90;;;;;;5049348;28;20037;-49
2023/08/19 03:44:44;;;;;;;19.92;17.50;;;19.90;99.90;;;;;;5048757;28;19920;-54
2023/08/19 03:47:12;;;;;;;;;;;19.90;99.90;;;;;;5049140;28;20050;-52
2023/08/19 03:49:38;;;;;;;22.23;18.85;;;19.90;99.90;;;;;;5047282;28;20554;-51
2023/08/19 03:52:07;;;;;;;23.58;18.63;;;19.90;99.90;;;;;;5045714;28;20058;-50
2023/08/19 03:54:33;;;;;;;20.67;18.55;;;19.90;99.90;;;;;;5048550;28;20220;-49
2023/08/19 03:56:58;;;;;;;29.38;18.83;;;19.90;99.90;;;;;;5047254;28;20034;-50
2023/08/19 03:59:24;;;;;;;;;;;19.90;99.90;;;;;;5048458;28;20033;-50
2023/08/19 04:01:50;;;;;;;21.05;18.75;;;19.80;99.90;;;;;;5048179;28;19928;-49
2023/08/19 04:04:15;;;;;;;;;;;19.80;99.90;;;;;;5048844;28;20040;-51
2023/08/19 04:06:41;;;;;;;25.13;18.48;;;19.80;99.90;;;;;;5047695;28;19916;-54
2023/08/19 04:09:07;;;;;;;;;;;19.90;99.90;;;;;;5029995;28;20036;-49
2023/08/19 04:11:33;;;;;;;25.83;17.35;;;19.80;99.90;;;;;;5048589;28;19920;-49
2023/08/19 04:13:58;;;;;;;;;;;19.80;99.90;;;;;;5049155;28;20390;-49
2023/08/19 04:16:24;;;;;;;22.95;19.60;;;19.80;99.90;;;;;;5048187;28;19921;-50
2023/08/19 04:18:50;;;;;;;22.02;17.60;;;19.80;99.90;;;;;;5047597;28;20029;-53
2023/08/19 04:21:17;;;;;;;21.05;18.88;;;19.80;99.90;;;;;;5045163;28;20116;-50
2023/08/19 04:23:42;;;;;;;20.92;18.83;;;19.80;99.90;;;;;;5048737;28;20072;-49
2023/08/19 04:26:08;;;;;;;22.65;19.25;;;19.80;99.90;;;;;;5030143;28;20520;-52
2023/08/19 04:28:33;;;;;;;21.50;17.83;;;19.80;99.90;;;;;;5029580;28;20049;-50
2023/08/19 04:31:03;;;;;;;;;;;19.80;99.90;;;;;;5040968;28;20218;-50
2023/08/19 04:33:29;;;;;;;18.73;16.92;;;19.80;99.90;;;;;;5048573;28;20377;-50
2023/08/19 04:35:54;;;;;;;;;;;19.80;99.90;;;;;;5047365;28;20048;-49
2023/08/19 04:38:21;;;;;;;20.88;17.13;;;19.70;99.90;;;;;;5047768;28;20396;-50
2023/08/19 04:40:46;;;;;;;;;;;19.70;99.90;;;;;;5048581;28;20040;-49
2023/08/19 04:43:12;;;;;;;20.17;17.92;;;19.80;99.90;;;;;;5048204;28;19917;-52
2023/08/19 04:45:38;;;;;;;;;;;19.80;99.90;;;;;;5051969;28;20098;-50
2023/08/19 04:48:05;;;;;;;19.52;17.13;;;19.80;99.90;;;;;;5033967;28;19952;-50
2023/08/19 04:50:31;;;;;;;23.73;19.25;;;19.80;99.90;;;;;;5051828;28;20544;-49
2023/08/19 04:52:56;;;;;;;;;;;19.90;99.90;;;;;;5052753;28;20076;-49
2023/08/19 04:55:22;;;;;;;21.23;18.08;;;19.90;99.90;;;;;;5051689;28;19963;-52
2023/08/19 04:57:47;;;;;;;;;;;20.00;99.90;;;;;;5052012;28;20040;-52
2023/08/19 05:00:13;;;;;;;24.95;18.42;;;20.00;99.90;;;;;;5051673;28;19917;-49
2023/08/19 05:02:39;;;;;;;;;;;20.00;99.90;;;;;;5034746;28;20037;-49
2023/08/19 05:05:05;;;;;;;18.50;16.30;;;20.10;99.90;;;;;;5050570;28;20240;-50
2023/08/19 05:07:30;;;;;;;;;;;20.20;99.90;;;;;;5052461;28;20091;-51
2023/08/19 05:09:56;;;;;;;22.02;16.95;;;20.20;99.90;;;;;;5052771;28;19916;-54
2023/08/19 05:12:25;;;;;;;20.13;17.98;;;20.30;99.90;;;;;;5051392;28;20036;-49
2023/08/19 05:14:51;;;;;;;19.38;16.33;;;20.30;99.90;;;;;;5051786;28;21231;-53
2023/08/19 05:17:17;;;;;;;19.67;16.95;;;20.40;99.90;;;;;;5051028;28;20029;-49
2023/08/19 05:19:43;;;;;;;;;;;20.40;99.90;;;;;;5033450;28;20054;-50
2023/08/19 05:22:09;;;;;;;17.13;14.75;;;20.50;99.90;;;;;;5051966;28;19967;-53
2023/08/19 05:24:34;;;;;;;;;;;20.50;99.90;;;;;;5051734;28;20144;-51
2023/08/19 05:27:00;;;;;;;18.40;16.52;;;20.50;99.90;;;;;;5051093;28;19925;-49
2023/08/19 05:29:26;;;;;;;;;;;20.50;99.90;;;;;;5051091;28;20040;-49
2023/08/19 05:31:52;;;;;;;16.95;15.18;;;20.60;99.90;;;;;;5051063;28;19917;-52
2023/08/19 05:34:17;;;;;;;;;;;20.60;99.90;;;;;;5051834;28;20036;-53
2023/08/19 05:36:43;;;;;;;17.50;14.80;;;20.60;99.90;;;;;;5045024;28;20403;-50
2023/08/19 05:39:09;;;;;;;;;;;20.70;99.90;;;;;;5050963;28;20033;-52
2023/08/19 05:41:34;;;;;;;16.38;14.25;;;20.70;99.90;;;;;;5051108;28;20023;-49
2023/08/19 05:44:00;;;;;;;;;;;20.70;99.90;;;;;;5032791;28;20039;-53
2023/08/19 05:46:25;;;;;;;17.20;14.98;;;20.70;99.90;;;;;;5050672;28;19916;-52
2023/08/19 05:48:51;;;;;;;;;;;20.70;99.90;;;;;;5049936;28;20037;-54
2023/08/19 05:51:17;;;;;;;13.75;12.32;;;20.70;99.90;;;;;;5050566;28;19916;-51
2023/08/19 05:53:42;;;;;;;;;;;20.70;99.90;;;;;;5051666;28;20118;-52
2023/08/19 05:56:08;;;;;;;15.80;13.13;;;20.70;99.90;;;;;;5049809;28;19935;-50
2023/08/19 05:58:33;;;;;;;;;;;20.70;99.90;;;;;;5050716;28;20606;-50
2023/08/19 06:01:03;;;;;;;14.38;12.32;;;20.80;99.90;;;;;;5050844;28;19917;-50
2023/08/19 06:03:29;;;;;;;13.32;11.68;;;20.80;99.90;;;;;;5050434;28;20448;-50
2023/08/19 06:05:54;;;;;;;;;;;20.80;99.90;;;;;;5049402;28;20037;-49
2023/08/19 06:08:20;;;;;;;13.32;12.00;;;20.80;99.90;;;;;;5045750;28;20385;-50
2023/08/19 06:10:46;;;;;;;;;;;20.80;99.90;;;;;;5051162;28;20036;-50
2023/08/19 06:13:11;;;;;;;13.40;11.93;;;20.90;99.90;;;;;;5050455;28;19916;-56
2023/08/19 06:15:37;;;;;;;;;;;20.80;99.90;;;;;;5049755;28;20037;-50
2023/08/19 06:18:03;;;;;;;13.45;10.43;;;20.80;99.90;;;;;;5048396;28;20205;-52
2023/08/19 06:20:28;;;;;;;;;;;20.90;99.90;;;;;;5050173;28;20048;-50
2023/08/19 06:22:54;;;;;;;15.05;11.95;;;20.90;99.90;;;;;;5049149;28;20385;-51
2023/08/19 06:25:19;;;;;;;;;;;20.90;99.90;;;;;;5046778;28;20052;-52
2023/08/19 06:27:45;;;;;;;13.95;11.85;;;21.00;99.90;;;;;;5049829;28;19920;-49
2023/08/19 06:30:12;;;;;;;;;;;21.00;99.90;;;;;;5050098;28;20144;-51
2023/08/19 06:32:38;;;;;;;16.52;11.60;;;21.00;99.90;;;;;;5050107;28;20305;-49
2023/08/19 06:35:03;;;;;;;;;;;21.10;99.90;;;;;;5050426;28;20045;-50
2023/08/19 06:37:31;;;;;;;15.00;11.82;;;21.10;99.90;;;;;;5047163;28;20374;-50
2023/08/19 06:40:04;;;;;;;16.65;11.68;;;21.10;99.90;;;;;;5049519;28;20032;-49
2023/08/19 06:42:31;;;;;;;19.50;11.45;;;21.10;99.90;;;;;;5049910;28;20098;-52
2023/08/19 06:44:59;;;;;;;16.23;11.40;;;21.20;99.90;;;;;;5049357;28;20387;-50
2023/08/19 06:47:30;;;;;;;14.85;11.52;;;21.20;99.90;;;;;;5050048;28;20041;-52
2023/08/19 06:49:56;;;;;;;11.63;10.52;;;21.30;99.90;;;;;;5046646;28;20754;-49
2023/08/19 06:52:22;;;;;;;;;;;21.30;99.90;;;;;;5050131;28;20112;-51
2023/08/19 06:54:48;;;;;;;14.32;10.38;;;21.40;99.90;;;;;;5026234;28;19917;-50
2023/08/19 06:57:29;;;;;;;15.57;10.43;;;21.30;99.90;;;;;;5048990;28;20049;-50
2023/08/19 07:00:01;;;;;;;12.93;10.07;;;21.30;99.90;;;;;;5048151;28;20093;-50
2023/08/19 07:02:28;;;;;;;12.90;9.85;;;21.40;99.90;;;;;;5046762;28;20459;-49
2023/08/19 07:04:59;;;;;;;10.73;9.43;;;21.40;99.90;;;;;;5046375;28;20033;-56
2023/08/19 07:07:25;;;;;;;23.77;9.80;;;21.40;99.90;;;;;;5026751;28;20048;-54
2023/08/19 07:09:52;;;;;;;10.45;8.70;;;21.50;99.90;;;;;;5046021;28;20430;-51
2023/08/19 07:12:18;;;;;;;11.20;8.45;;;21.50;99.90;;;;;;5047097;28;20048;-52
2023/08/19 07:14:44;;;;;;;12.57;9.88;;;21.50;99.90;;;;;;5047699;28;20048;-51
2023/08/19 07:17:10;;;;;;;;;;;21.50;99.90;;;;;;5046205;28;20414;-49
2023/08/19 07:19:40;;;;;;;12.02;9.95;;;21.60;99.90;;;;;;5047084;28;19916;-49
2023/08/19 07:22:06;;;;;;;11.15;9.23;;;21.60;99.90;;;;;;5048533;28;20041;-50
2023/08/19 07:24:32;;;;;;;10.25;9.10;;;21.60;99.90;;;;;;5047444;28;20037;-49
2023/08/19 07:27:00;;;;;;;;;;;21.60;99.90;;;;;;5049230;28;20489;-51
2023/08/19 07:29:26;;;;;;;9.85;8.77;;;21.60;99.90;;;;;;5045992;28;20015;-50
2023/08/19 07:31:52;;;;;;;;;;;21.60;99.90;;;;;;5048276;28;20111;-53
2023/08/19 07:34:19;;;;;;;10.32;9.23;;;21.70;99.90;;;;;;5048597;28;19917;-52
2023/08/19 07:36:44;;;;;;;9.57;8.65;;;21.70;99.90;;;;;;5048381;28;20045;-49
2023/08/19 07:39:10;;;;;;;;;;;21.70;99.90;;;;;;5047046;28;20106;-53
2023/08/19 07:41:36;;;;;;;10.80;8.05;;;21.70;99.90;;;;;;5048856;28;19960;-50
2023/08/19 07:44:01;;;;;;;;;;;21.70;99.90;;;;;;5049116;28;20312;-50
2023/08/19 07:46:27;;;;;;;9.25;8.43;;;21.80;99.90;;;;;;5048363;28;19923;-55
2023/08/19 07:48:52;;;;;;;10.10;8.20;;;21.80;99.90;;;;;;5047453;28;20033;-53
2023/08/19 07:51:18;;;;;;;;;;;21.90;99.90;;;;;;5049760;28;20486;-49
2023/08/19 07:53:43;;;;;;;11.75;9.10;;;22.00;99.90;;;;;;5044890;28;20037;-50
2023/08/19 07:56:09;;;;;;;8.45;7.57;;;22.00;99.90;;;;;;5048323;28;20490;-52
2023/08/19 07:58:36;;;;;;;;;;;22.10;99.90;;;;;;5047863;28;20528;-52
2023/08/19 08:01:02;;;;;;;8.82;7.85;;;22.20;99.90;;;;;;5048377;28;19921;-50
2023/08/19 08:03:28;;;;;;;9.65;7.57;;;22.30;99.90;;;;;;5047083;28;20375;-51
2023/08/19 08:05:53;;;;;;;;;;;22.40;99.90;;;;;;5047389;28;20138;-53
2023/08/19 08:08:19;;;;;;;16.15;7.53;;;22.50;99.90;;;;;;5045754;28;19923;-53
2023/08/19 08:10:44;;;;;;;;;;;22.50;99.90;;;;;;5048726;28;20173;-49
2023/08/19 08:13:10;;;;;;;9.43;7.85;;;22.60;99.90;;;;;;5048411;28;20373;-50
2023/08/19 08:15:36;;;;;;;;;;;22.60;99.90;;;;;;5030130;28;20071;-54
2023/08/19 08:18:01;;;;;;;6.22;5.53;;;22.70;99.90;;;;;;5045892;28;19917;-52
2023/08/19 08:20:27;;;;;;;49.63;10.27;;;22.80;99.90;;;;;;5046477;28;20063;-50
2023/08/19 08:22:52;;;;;;;73.18;11.07;;;22.90;99.90;;;;;;5047563;28;20041;-50
2023/08/19 08:25:18;;;;;;;6.53;5.85;;;22.90;99.90;;;;;;5047420;28;20025;-53
2023/08/19 08:27:45;;;;;;;9.63;6.10;;;23.00;99.90;;;;;;5047307;28;20032;-50
2023/08/19 08:30:11;;;;;;;8.65;5.95;;;23.10;99.90;;;;;;5046900;28;20390;-51
2023/08/19 08:32:37;;;;;;;9.57;6.35;;;23.10;99.90;;;;;;5047794;28;20159;-51
2023/08/19 08:35:02;;;;;;;;;;;23.20;99.90;;;;;;5047845;28;20116;-50
2023/08/19 08:37:28;;;;;;;10.25;5.90;;;23.20;99.90;;;;;;5047840;28;19948;-51
2023/08/19 08:39:53;;;;;;;8.68;5.85;;;23.30;99.90;;;;;;5045579;28;20043;-53
2023/08/19 08:42:20;;;;;;;7.30;5.78;;;23.30;99.90;;;;;;5047774;28;20057;-52
2023/08/19 08:44:47;;;;;;;6.00;4.70;;;23.40;99.90;;;;;;5047239;28;20045;-52
2023/08/19 08:47:14;;;;;;;10.13;5.47;;;23.50;99.90;;;;;;5047550;28;20117;-50
2023/08/19 08:49:40;;;;;;;6.68;5.07;;;23.60;99.90;;;;;;5045636;28;20392;-49
2023/08/19 08:52:06;;;;;;;8.52;5.45;;;23.70;99.90;;;;;;5047344;28;20383;-52
2023/08/19 08:54:33;;;;;;;6.35;5.53;;;23.70;99.90;;;;;;5045454;28;20065;-50
2023/08/19 08:57:01;;;;;;;6.68;5.00;;;23.80;99.90;;;;;;5047655;28;20055;-50
2023/08/19 08:59:30;;;;;;;9.15;5.28;;;23.80;99.90;;;;;;5043733;28;20109;-49
2023/08/19 09:01:59;;;;;;;5.80;5.22;;;23.90;99.90;;;;;;5046492;28;20041;-53
2023/08/19 09:04:28;;;;;;;5.97;5.15;;;24.00;99.90;;;;;;5045168;28;20072;-49
2023/08/19 09:07:04;;;;;;;9.57;5.85;;;24.10;99.90;;;;;;5047438;28;20037;-49
2023/08/19 09:09:33;;;;;;;7.97;5.28;;;24.20;99.90;;;;;;5045501;28;20044;-50
2023/08/19 09:12:03;;;;;;;8.48;5.38;;;24.20;99.90;;;;;;5046319;28;20383;-50
2023/08/19 09:14:44;;;;;;;9.00;5.45;;;24.30;99.90;;;;;;5046043;28;20536;-51
2023/08/19 09:17:17;;;;;;;7.65;5.63;;;24.30;99.90;;;;;;5046564;28;20033;-50
2023/08/19 09:19:43;;;;;;;9.55;5.65;;;24.40;99.90;;;;;;5043331;28;20034;-52
2023/08/19 09:22:29;;;;;;;6.90;5.43;;;24.50;99.90;;;;;;5047013;28;20606;-54
2023/08/19 09:24:54;;;;;;;9.17;5.30;;;24.60;99.90;;;;;;5046193;28;20041;-52
2023/08/19 09:27:27;;;;;;;5.97;4.75;;;24.60;99.90;;;;;;5047413;28;20075;-50
2023/08/19 09:29:54;;;;;;;10.00;4.75;;;24.70;99.90;;;;;;5045939;28;20048;-51
2023/08/19 09:32:33;;;;;;;4.93;4.30;;;24.70;99.90;;;;;;5050471;28;20033;-49
2023/08/19 09:35:04;;;;;;;5.28;4.50;;;24.80;99.90;;;;;;5048302;28;20037;-51
2023/08/19 09:37:30;;;;;;;4.63;3.80;;;24.90;99.90;;;;;;5051058;28;20097;-51
2023/08/19 09:39:56;;;;;;;7.10;4.40;;;24.90;99.90;;;;;;5048805;28;20049;-54
2023/08/19 09:42:22;;;;;;;8.55;4.63;;;25.00;99.90;;;;;;5050343;28;20512;-50
2023/08/19 09:44:47;;;;;;;4.75;3.53;;;25.00;99.90;;;;;;5050118;28;20102;-51
2023/08/19 09:47:13;;;;;;;5.57;3.97;;;25.10;99.90;;;;;;5050883;28;20036;-49
2023/08/19 09:49:39;;;;;;;7.07;3.83;;;25.10;99.90;;;;;;5049657;28;20033;-52
2023/08/19 09:52:05;;;;;;;11.77;3.63;;;25.20;99.90;;;;;;5050961;28;20095;-51
2023/08/19 09:54:30;;;;;;;8.35;4.18;;;25.30;99.90;;;;;;5050409;28;20112;-50
2023/08/19 09:56:57;;;;;;;6.13;3.35;;;25.40;99.90;;;;;;5049665;28;20033;-50
2023/08/19 09:59:24;;;;;;;10.40;4.95;;;25.60;99.90;;;;;;5049944;28;20037;-53
2023/08/19 10:01:51;;;;;;;3.60;3.30;;;25.70;99.90;;;;;;5050544;28;20044;-50
2023/08/19 10:04:18;;;;;;;4.85;3.55;;;25.80;99.90;;;;;;5050387;28;20445;-51
2023/08/19 10:06:49;;;;;;;6.95;3.92;;;25.90;99.90;;;;;;5049512;28;20262;-55
2023/08/19 10:09:22;;;;;;;9.98;4.30;;;26.00;99.90;;;;;;5041543;28;20068;-50
2023/08/19 10:11:52;;;;;;;10.20;4.90;;;26.00;99.90;;;;;;5048789;28;20207;-53
2023/08/19 10:14:23;;;;;;;9.20;4.30;;;26.10;99.90;;;;;;5050561;28;20078;-50
2023/08/19 10:16:51;;;;;;;8.15;4.35;;;26.10;99.90;;;;;;5031462;28;20624;-50
2023/08/19 10:19:20;;;;;;;12.70;4.15;;;26.20;99.90;;;;;;5048883;28;20040;-50
2023/08/19 10:21:47;;;;;;;11.20;3.90;;;26.30;99.90;;;;;;5047190;28;20041;-50
2023/08/19 10:24:16;;;;;;;7.68;3.75;;;26.30;99.90;;;;;;5050389;28;20478;-50
2023/08/19 10:26:48;;;;;;;6.63;4.07;;;26.40;99.90;;;;;;5049676;28;20045;-52
2023/08/19 10:29:14;;;;;;;6.80;4.10;;;26.40;99.90;;;;;;5045905;28;20037;-51
2023/08/19 10:31:42;;;;;;;13.38;4.57;;;26.50;99.90;;;;;;5049721;28;20033;-54
2023/08/19 10:34:18;;;;;;;6.20;4.53;;;26.50;99.90;;;;;;5032148;28;20048;-50
2023/08/19 10:36:43;;;;;;;7.30;4.05;;;26.50;99.90;;;;;;5049097;28;20559;-50
2023/08/19 10:39:16;;;;;;;12.13;4.15;;;26.50;99.90;;;;;;5049377;28;20116;-52
2023/08/19 10:41:41;;;;;;;7.18;4.70;;;26.50;99.90;;;;;;5046425;28;20161;-50
2023/08/19 10:44:12;;;;;;;10.13;5.40;;;26.40;99.90;;;;;;5050143;28;20526;-49
2023/08/19 10:46:49;;;;;;;12.95;5.85;;;26.30;99.90;;;;;;5048866;28;20041;-55
2023/08/19 10:49:18;;;;;;;9.40;5.13;;;26.20;99.90;;;;;;5048351;28;20041;-49
2023/08/19 10:52:03;;;;;;;9.00;5.68;;;26.10;99.90;;;;;;5049845;28;20492;-49
2023/08/19 10:54:38;;;;;;;11.25;5.75;;;26.00;99.90;;;;;;5050168;28;20472;-51
2023/08/19 10:57:14;;;;;;;8.90;6.15;;;25.90;99.90;;;;;;5048439;28;20102;-51
2023/08/19 10:59:45;;;;;;;10.27;5.95;;;25.80;99.90;;;;;;5049368;28;20064;-50
2023/08/19 11:02:12;;;;;;;14.45;5.18;;;25.80;99.90;;;;;;5049900;28;20425;-50
2023/08/19 11:04:43;;;;;;;8.30;6.38;;;25.70;99.90;;;;;;5049843;28;20037;-50
2023/08/19 11:07:09;;;;;;;9.60;6.93;;;25.60;99.90;;;;;;5048656;28;20048;-52
2023/08/19 11:09:35;;;;;;;10.10;7.80;;;25.50;99.90;;;;;;5048273;28;20078;-50
2023/08/19 11:12:02;;;;;;;8.32;6.80;;;25.40;99.90;;;;;;5049461;28;20033;-50
2023/08/19 11:14:28;;;;;;;9.30;7.35;;;25.30;99.90;;;;;;5049594;28;20090;-51
2023/08/19 11:16:56;;;;;;;10.93;8.15;;;25.20;99.90;;;;;;5044614;28;20040;-53
2023/08/19 11:19:22;;;;;;;8.88;7.95;;;25.10;99.90;;;;;;5024047;28;20448;-50
2023/08/19 11:21:48;;;;;;;11.30;8.57;;;25.00;99.90;;;;;;5048414;28;20523;-50
2023/08/19 11:24:14;;;;;;;10.38;8.13;;;25.00;99.90;;;;;;5048606;28;20072;-50
2023/08/19 11:26:45;;;;;;;9.55;8.30;;;25.00;99.90;;;;;;5048815;28;20047;-50
2023/08/19 11:29:11;;;;;;;14.68;8.70;;;25.10;99.90;;;;;;5046417;28;20044;-52
2023/08/19 11:31:38;;;;;;;12.30;9.43;;;25.10;99.90;;;;;;5048957;28;20055;-52
2023/08/19 11:34:08;;;;;;;14.18;10.13;;;25.20;99.90;;;;;;5048362;28;20037;-50
2023/08/19 11:36:35;;;;;;;10.27;9.27;;;25.20;99.90;;;;;;5048419;28;20094;-50
2023/08/19 11:39:03;;;;;;;13.65;9.00;;;25.30;99.90;;;;;;5045188;28;20045;-52
2023/08/19 11:41:29;;;;;;;10.57;8.98;;;25.50;99.90;;;;;;5047211;28;20413;-50
2023/08/19 11:43:57;;;;;;;11.50;9.05;;;25.50;99.90;;;;;;5048428;28;20458;-51
2023/08/19 11:46:27;;;;;;;19.10;9.55;;;25.60;99.90;;;;;;5029878;28;20051;-53
2023/08/19 11:48:52;;;;;;;12.40;9.38;;;25.80;99.90;;;;;;5045940;28;20037;-50
2023/08/19 11:51:19;;;;;;;13.55;10.02;;;26.00;99.90;;;;;;5046715;28;20031;-50
2023/08/19 11:53:49;;;;;;;13.95;9.65;;;26.10;99.90;;;;;;5047749;28;20514;-51
2023/08/19 11:56:15;;;;;;;10.20;9.32;;;26.20;99.90;;;;;;5030348;28;20095;-53
2023/08/19 11:58:47;;;;;;;15.68;11.07;;;26.30;99.90;;;;;;5047870;28;20041;-50
2023/08/19 12:01:13;;;;;;;15.88;11.10;;;26.60;99.90;;;;;;5049250;28;20359;-50
2023/08/19 12:03:46;;;;;;;17.40;12.32;;;26.80;99.90;;;;;;5030458;28;20047;-50
2023/08/19 12:06:12;;;;;;;15.70;13.82;;;27.10;99.90;;;;;;5027537;28;20413;-52
2023/08/19 12:08:43;;;;;;;17.05;13.52;;;27.20;99.90;;;;;;5047893;28;20094;-52
2023/08/19 12:11:10;;;;;;;17.45;13.23;;;27.30;99.90;;;;;;5048754;28;20045;-52
2023/08/19 12:13:36;;;;;;;15.23;12.55;;;27.40;99.90;;;;;;5048607;28;20111;-53
2023/08/19 12:16:03;;;;;;;21.13;14.13;;;27.40;99.90;;;;;;5048593;28;20028;-52
2023/08/19 12:18:35;;;;;;;14.52;12.48;;;27.40;99.90;;;;;;5046170;28;20052;-51
2023/08/19 12:21:04;;;;;;;15.60;11.95;;;27.40;99.90;;;;;;5048527;28;20025;-51
2023/08/19 12:23:30;;;;;;;13.73;12.50;;;27.40;99.90;;;;;;5048402;28;20067;-54
2023/08/19 12:25:57;;;;;;;16.88;14.35;;;27.30;99.90;;;;;;5047987;28;20031;-54
2023/08/19 12:28:24;;;;;;;16.45;13.02;;;27.30;99.90;;;;;;5044912;28;20387;-51
2023/08/19 12:30:51;;;;;;;19.27;14.75;;;27.20;99.90;;;;;;5042906;28;20064;-50
2023/08/19 12:33:18;;;;;;;16.85;14.63;;;27.10;99.90;;;;;;5048075;28;20052;-52
2023/08/19 12:35:47;;;;;;;16.63;14.75;;;27.00;99.90;;;;;;5042923;28;20572;-51
2023/08/19 12:38:14;;;;;;;15.95;14.43;;;26.90;99.90;;;;;;5043713;28;20067;-50
2023/08/19 12:40:41;;;;;;;22.20;16.65;;;26.80;99.90;;;;;;5048042;28;20036;-50
2023/08/19 12:43:07;;;;;;;18.08;16.13;;;26.80;99.90;;;;;;5045383;28;21122;-50
2023/08/19 12:45:33;;;;;;;21.08;17.42;;;26.70;99.90;;;;;;5044263;28;20034;-50
2023/08/19 12:47:58;;;;;;;19.30;17.40;;;26.70;99.90;;;;;;5048147;28;20060;-50
2023/08/19 12:50:24;;;;;;;30.80;18.73;;;26.60;99.90;;;;;;5047431;28;20040;-53
2023/08/19 12:52:50;;;;;;;25.13;22.13;;;26.50;99.90;;;;;;5045107;28;20123;-54